Time;durP1;ratioP1;P1;durP2;ratioP2;P2;SDS_P1;SDS_P2;PMS_P1;PMS_P2;Temp;Humidity;BMP_temperature;BMP_pressure;BME280_temperature;BME280_humidity;BME280_pressure;Samples;Min_cycle;Max_cycle;Signal;HPM_P1;HPM_P2
2023/10/11 00:02:56;;;;;;;19.65;5.13;;;;;;;18.17;66.15;101356.59;5115065;28;20046;-62
2023/10/11 00:05:25;;;;;;;9.95;5.15;;;;;;;18.14;66.51;101357.50;5114948;28;20024;-62
2023/10/11 00:07:57;;;;;;;17.25;5.57;;;;;;;18.14;66.15;101356.63;5115265;28;20038;-61
2023/10/11 00:10:23;;;;;;;13.60;4.93;;;;;;;18.11;66.17;101354.84;5115249;28;20142;-61
2023/10/11 00:12:50;;;;;;;12.30;5.07;;;;;;;18.09;66.29;101362.03;5115062;28;20028;-63
2023/10/11 00:15:18;;;;;;;10.63;5.20;;;;;;;18.07;66.57;101363.81;5114824;28;20488;-60
2023/10/11 00:17:46;;;;;;;12.40;4.93;;;;;;;18.03;66.70;101362.13;5113398;28;20062;-62
2023/10/11 00:22:57;;;;;;;11.23;5.10;;;;;;;18.00;66.01;101357.69;5115099;28;20046;-61
2023/10/11 00:25:28;;;;;;;12.05;5.10;;;;;;;17.95;66.23;101359.53;5114573;27;20389;-61
2023/10/11 00:27:58;;;;;;;11.37;5.10;;;;;;;17.93;66.29;101344.38;5114704;28;20060;-61
2023/10/11 00:30:29;;;;;;;11.00;4.82;;;;;;;17.88;66.81;101341.78;5114558;28;20028;-61
2023/10/11 00:32:55;;;;;;;10.10;5.47;;;;;;;17.89;66.86;101350.69;5114478;28;20028;-61
2023/10/11 00:35:24;;;;;;;12.05;5.18;;;;;;;17.87;66.65;101352.50;5114428;28;20032;-61
2023/10/11 00:37:54;;;;;;;18.98;5.60;;;;;;;17.83;66.94;101346.28;5114399;28;20047;-62
2023/10/11 00:40:32;;;;;;;11.88;5.50;;;;;;;17.80;67.25;101349.00;5114406;28;20431;-62
2023/10/11 00:42:58;;;;;;;12.70;4.90;;;;;;;17.82;67.03;101346.31;5114279;28;20063;-61
2023/10/11 00:45:26;;;;;;;11.80;5.00;;;;;;;17.81;67.25;101358.78;5114323;28;20400;-61
2023/10/11 00:47:53;;;;;;;14.40;5.22;;;;;;;17.83;67.29;101348.09;5114211;28;20034;-61
2023/10/11 00:50:21;;;;;;;10.02;4.80;;;;;;;17.76;67.15;101345.47;5114077;28;20481;-62
2023/10/11 00:52:48;;;;;;;15.43;4.78;;;;;;;17.79;67.47;101344.56;5113862;28;20048;-61
2023/10/11 00:55:32;;;;;;;14.55;5.05;;;;;;;17.81;66.96;101350.75;5114228;28;20031;-61
2023/10/11 00:57:57;;;;;;;11.75;5.07;;;;;;;17.79;67.31;101343.66;5114295;28;20031;-61
2023/10/11 01:00:23;;;;;;;11.95;4.95;;;;;;;17.75;67.68;101341.03;5114051;28;20473;-60
2023/10/11 01:02:54;;;;;;;12.40;5.15;;;;;;;17.76;67.43;101344.56;5113827;28;20039;-61
2023/10/11 01:05:20;;;;;;;11.80;5.37;;;;;;;17.74;67.66;101341.06;5113831;28;20387;-62
2023/10/11 01:07:46;;;;;;;10.32;5.35;;;;;;;17.68;67.95;101333.06;5113907;28;20261;-60
2023/10/11 01:10:13;;;;;;;11.60;5.15;;;;;;;17.63;68.04;101343.78;5113804;28;20023;-61
2023/10/11 01:12:41;;;;;;;10.65;4.85;;;;;;;17.58;68.41;101331.38;5112382;28;20118;-63
2023/10/11 01:15:12;;;;;;;13.35;5.45;;;;;;;17.52;68.89;101343.03;5112404;28;20396;-60
2023/10/11 01:17:39;;;;;;;9.63;4.93;;;;;;;17.46;68.80;101340.41;5113663;28;20484;-60
2023/10/11 01:20:14;;;;;;;12.45;5.65;;;;;;;17.41;69.14;101335.09;5113765;28;20076;-62
2023/10/11 01:22:43;;;;;;;12.05;5.45;;;;;;;17.39;69.21;101339.59;5113724;28;20028;-62
2023/10/11 01:25:18;;;;;;;11.20;5.30;;;;;;;17.36;69.42;101339.63;5113364;28;20102;-62
2023/10/11 01:27:44;;;;;;;11.05;5.20;;;;;;;17.31;69.54;101333.44;5113869;28;20039;-61
2023/10/11 01:30:10;;;;;;;12.05;5.10;;;;;;;17.31;69.48;101335.22;5113698;28;20028;-62
2023/10/11 01:32:37;;;;;;;11.40;5.30;;;;;;;17.28;69.87;101333.44;5113678;28;20031;-61
2023/10/11 01:35:05;;;;;;;13.10;5.25;;;;;;;17.21;69.96;101329.94;5113390;28;20040;-61
2023/10/11 01:37:36;;;;;;;13.35;5.57;;;;;;;17.19;70.21;101326.41;5112170;28;20027;-62
2023/10/11 01:40:07;;;;;;;9.15;5.00;;;;;;;17.20;70.29;101327.28;5113773;28;20032;-61
2023/10/11 01:42:41;;;;;;;10.57;5.05;;;;;;;17.17;70.48;101320.22;5113421;28;20059;-61
2023/10/11 01:45:08;;;;;;;13.75;5.40;;;;;;;17.14;70.35;101325.56;5113635;28;20055;-62
2023/10/11 01:47:34;;;;;;;9.93;4.53;;;;;;;17.10;70.81;101322.94;5113426;28;20036;-61
2023/10/11 01:49:59;;;;;;;10.88;5.25;;;;;;;17.08;70.91;101317.59;5111971;28;20475;-61
2023/10/11 01:52:26;;;;;;;12.35;5.40;;;;;;;17.06;71.18;101311.41;5113108;28;20173;-62
2023/10/11 01:54:55;;;;;;;11.80;5.38;;;;;;;17.01;71.07;101313.22;5113314;28;20157;-61
2023/10/11 01:57:21;;;;;;;12.20;5.35;;;;;;;17.02;71.29;101307.84;5117382;28;20066;-62
2023/10/11 01:59:46;;;;;;;10.23;5.35;;;;;;;17.00;71.20;101307.00;5117767;28;20027;-62
2023/10/11 02:02:13;;;;;;;11.57;5.32;;;;;;;16.95;71.48;101306.13;5117342;28;20468;-62
2023/10/11 02:04:40;;;;;;;9.00;4.88;;;;;;;16.90;71.96;101302.63;5117697;28;20067;-61
2023/10/11 02:07:05;;;;;;;12.43;5.43;;;;;;;16.88;71.79;101293.75;5117668;28;20023;-61
2023/10/11 02:09:33;;;;;;;10.50;5.43;;;;;;;16.82;72.34;101298.25;5117592;28;20045;-62
2023/10/11 02:11:59;;;;;;;11.38;4.88;;;;;;;16.77;72.55;101290.25;5117320;28;20469;-61
2023/10/11 02:14:28;;;;;;;12.82;5.20;;;;;;;16.71;72.71;101291.19;5117171;28;20065;-62
2023/10/11 02:16:53;;;;;;;10.32;5.20;;;;;;;16.65;72.94;101288.53;5117190;28;20110;-62
2023/10/11 02:19:19;;;;;;;10.13;5.20;;;;;;;16.62;73.22;101287.69;5117358;28;20059;-62
2023/10/11 02:21:44;;;;;;;8.05;5.10;;;;;;;16.56;73.59;101285.06;5117037;28;20099;-61
2023/10/11 02:24:14;;;;;;;12.93;5.13;;;;;;;16.50;73.84;101272.66;5117221;28;20183;-62
2023/10/11 02:26:49;;;;;;;10.20;5.40;;;;;;;16.50;73.92;101280.66;5117540;28;20039;-61
2023/10/11 02:29:21;;;;;;;11.38;5.65;;;;;;;16.44;74.15;101267.34;5116954;28;20020;-62
2023/10/11 02:31:52;;;;;;;9.75;5.22;;;;;;;16.41;74.37;101267.38;5117205;28;20053;-61
2023/10/11 02:34:18;;;;;;;12.30;5.53;;;;;;;16.41;74.55;101273.59;5116941;28;20413;-61
2023/10/11 02:36:45;;;;;;;11.07;5.50;;;;;;;16.43;74.42;101270.91;5116854;28;20038;-61
2023/10/11 02:39:20;;;;;;;12.82;5.53;;;;;;;16.38;74.83;101268.28;5116700;28;20065;-62
2023/10/11 02:41:57;;;;;;;11.80;5.50;;;;;;;16.37;74.78;101284.28;5116658;28;20042;-61
2023/10/11 02:44:24;;;;;;;10.82;4.90;;;;;;;16.38;74.79;101275.38;5116714;27;20028;-62
2023/10/11 02:46:53;;;;;;;10.45;5.53;;;;;;;16.34;75.31;101278.97;5116907;28;20047;-61
2023/10/11 02:49:18;;;;;;;10.63;4.93;;;;;;;16.30;75.30;101279.88;5116417;28;20102;-61
2023/10/11 02:51:56;;;;;;;14.20;5.63;;;;;;;16.32;75.34;101272.78;5116268;27;20070;-62
2023/10/11 02:54:42;;;;;;;10.55;5.13;;;;;;;16.32;75.39;101272.78;5114823;28;20073;-61
2023/10/11 02:57:19;;;;;;;11.88;5.68;;;;;;;16.30;75.32;101270.09;5116508;28;20437;-62
2023/10/11 02:59:45;;;;;;;11.85;5.88;;;;;;;16.31;75.44;101270.97;5116391;27;20032;-61
2023/10/11 03:02:15;;;;;;;11.23;5.97;;;;;;;16.30;75.40;101275.44;5115073;28;20034;-61
2023/10/11 03:04:41;;;;;;;11.05;5.45;;;;;;;16.30;75.54;101274.56;5116566;28;20039;-61
2023/10/11 03:07:12;;;;;;;12.73;5.90;;;;;;;16.29;75.86;101260.34;5114651;28;20442;-62
2023/10/11 03:09:38;;;;;;;11.85;6.05;;;;;;;16.25;75.85;101263.91;5116184;28;20031;-61
2023/10/11 03:12:18;;;;;;;9.95;5.60;;;;;;;16.22;76.10;101261.25;5116356;28;20054;-61
2023/10/11 03:14:45;;;;;;;11.13;5.70;;;;;;;16.18;76.42;101260.38;5115931;27;20529;-61
2023/10/11 03:17:14;;;;;;;11.70;5.50;;;;;;;16.09;76.95;101259.56;5115873;27;20473;-60
2023/10/11 03:19:43;;;;;;;13.90;5.85;;;;;;;16.00;77.30;101253.38;5116083;28;20035;-61
2023/10/11 03:22:19;;;;;;;12.95;5.57;;;;;;;15.94;77.74;101239.22;5116125;28;20016;-62
2023/10/11 03:24:53;;;;;;;13.43;5.72;;;;;;;15.89;77.99;101246.34;5115703;28;20034;-61
2023/10/11 03:27:18;;;;;;;9.18;4.95;;;;;;;15.96;77.95;101258.72;5115885;28;20027;-62
2023/10/11 03:29:45;;;;;;;11.57;5.38;;;;;;;15.95;77.62;101255.19;5115719;28;20027;-62
2023/10/11 03:32:10;;;;;;;11.82;5.68;;;;;;;15.95;78.12;101259.63;5115629;28;20480;-62
2023/10/11 03:34:36;;;;;;;11.65;5.93;;;;;;;15.92;78.13;101260.53;5115853;28;20030;-61
2023/10/11 03:37:10;;;;;;;12.13;5.50;;;;;;;15.95;78.02;101263.19;5115671;28;20023;-60
2023/10/11 03:42:07;;;;;;;10.07;5.85;;;;;;;15.89;78.64;101254.34;5115864;28;20084;-62
2023/10/11 03:44:39;;;;;;;15.05;5.85;;;;;;;15.84;79.17;101253.44;5115906;27;20027;-60
2023/10/11 03:47:07;;;;;;;13.40;6.03;;;;;;;15.83;79.21;101249.03;5115413;28;20035;-60
2023/10/11 03:52:19;;;;;;;11.82;6.03;;;;;;;15.77;79.76;101260.59;5115403;28;20030;-60
2023/10/11 03:54:54;;;;;;;14.45;6.40;;;;;;;15.70;80.25;101243.75;5115088;28;20043;-62
2023/10/11 03:57:20;;;;;;;13.48;6.20;;;;;;;15.66;80.44;101241.09;5115358;28;20028;-60
2023/10/11 03:59:51;;;;;;;11.77;6.07;;;;;;;15.62;80.62;101248.19;5115148;28;20027;-61
2023/10/11 04:02:17;;;;;;;11.82;5.93;;;;;;;15.66;80.62;101249.97;5115342;28;20063;-61
2023/10/11 04:04:46;;;;;;;11.02;6.07;;;;;;;15.60;80.73;101239.31;5115156;28;20036;-61
2023/10/11 04:07:14;;;;;;;13.15;6.15;;;;;;;15.61;80.89;101241.06;5115350;28;20050;-61
2023/10/11 04:09:40;;;;;;;14.27;6.78;;;;;;;15.60;81.39;101249.97;5115232;28;20020;-62
2023/10/11 04:12:10;;;;;;;12.60;6.05;;;;;;;15.56;81.76;101247.31;5115172;28;20113;-62
2023/10/11 04:14:40;;;;;;;14.07;5.97;;;;;;;15.52;81.80;101238.44;5114944;28;20096;-62
2023/10/11 04:19:48;;;;;;;11.35;6.63;;;;;;;15.47;82.55;101235.81;5114432;28;20036;-61
2023/10/11 04:22:17;;;;;;;12.70;6.85;;;;;;;15.43;82.91;101226.06;5114831;28;20028;-62
2023/10/11 04:24:45;;;;;;;12.35;7.22;;;;;;;15.37;83.28;101228.72;5114466;28;20035;-62
2023/10/11 04:29:47;;;;;;;14.55;6.72;;;;;;;15.41;82.97;101218.94;5114717;28;20128;-61
2023/10/11 04:32:19;;;;;;;12.15;6.82;;;;;;;15.44;83.00;101221.59;5114729;28;20114;-61
2023/10/11 04:34:48;;;;;;;11.45;6.22;;;;;;;15.46;83.15;101222.47;5114538;28;20494;-60
2023/10/11 04:37:54;;;;;;;16.45;7.10;;;;;;;15.43;83.17;101222.50;5114340;28;20034;-61
2023/10/11 04:40:24;;;;;;;13.88;6.75;;;;;;;15.41;82.97;101222.50;5111250;28;20046;-60
2023/10/11 04:43:04;;;;;;;10.88;6.90;;;;;;;15.38;83.25;101232.28;5114480;28;20111;-61
2023/10/11 04:45:45;;;;;;;12.50;6.07;;;;;;;15.41;83.25;101229.59;5112987;28;20122;-61
2023/10/11 04:48:14;;;;;;;11.55;6.43;;;;;;;15.39;83.29;101229.63;5114405;28;20365;-61
2023/10/11 04:50:50;;;;;;;13.35;6.38;;;;;;;15.37;83.52;101235.81;5114500;27;20042;-62
2023/10/11 04:53:21;;;;;;;14.60;6.47;;;;;;;15.32;83.48;101233.16;5113795;28;20078;-61
2023/10/11 04:55:59;;;;;;;17.98;6.97;;;;;;;15.30;83.94;101228.75;5114074;28;20425;-61
2023/10/11 04:58:41;;;;;;;17.52;7.05;;;;;;;15.25;83.97;101228.78;5114104;28;20034;-61
2023/10/11 05:01:08;;;;;;;;;;;;;;;15.34;82.83;101241.19;5114528;28;20024;-61
2023/10/11 05:03:37;;;;;;;11.13;5.95;;;;;;;15.31;83.36;101236.72;5113932;28;19916;-61
2023/10/11 05:06:19;;;;;;;12.45;6.32;;;;;;;15.28;84.16;101240.28;5114066;28;20027;-60
2023/10/11 05:08:51;;;;;;;;;;;;;;;15.38;82.74;101241.16;5113147;28;20031;-60
2023/10/11 05:11:35;;;;;;;12.90;6.65;;;;;;;15.27;83.81;101242.94;5113944;28;19912;-61
2023/10/11 05:14:26;;;;;;;11.85;7.00;;;;;;;15.21;84.46;101235.88;5113983;28;20058;-61
2023/10/11 05:16:58;;;;;;;13.52;6.85;;;;;;;15.16;84.93;101240.34;5114070;28;20039;-60
2023/10/11 05:19:23;;;;;;;18.35;6.80;;;;;;;15.13;84.87;101240.31;5113824;28;20047;-61
2023/10/11 05:21:55;;;;;;;12.60;6.72;;;;;;;15.06;85.63;101232.34;5112505;28;20019;-62
2023/10/11 05:24:54;;;;;;;20.60;7.68;;;;;;;15.00;85.86;101243.91;5113563;28;20469;-61
2023/10/11 05:32:49;;;;;;;13.32;7.05;;;;;;;15.08;85.94;101267.84;5113757;28;20070;-61
2023/10/11 05:51:28;;;;;;;15.90;7.15;;;;;;;15.05;86.84;101254.53;5113141;28;20048;-60
2023/10/11 05:53:54;;;;;;;11.23;7.28;;;;;;;14.99;87.12;101256.31;5112425;28;20070;-61
2023/10/11 05:56:23;;;;;;;14.60;7.60;;;;;;;14.98;87.75;101261.63;5113340;28;20032;-62
2023/10/11 05:58:52;;;;;;;14.70;7.53;;;;;;;14.94;88.19;101252.75;5112888;28;20043;-60
2023/10/11 06:01:21;;;;;;;18.30;8.25;;;;;;;14.93;88.30;101253.66;5113063;28;20038;-61
2023/10/11 06:03:56;;;;;;;13.55;6.75;;;;;;;14.99;88.07;101260.75;5113047;28;20067;-60
2023/10/11 06:09:16;;;;;;;13.55;7.35;;;;;;;15.05;87.85;101270.50;5113191;28;20034;-60
2023/10/11 06:11:47;;;;;;;12.20;7.25;;;;;;;15.09;88.10;101253.66;5112823;28;20085;-61
2023/10/11 06:14:16;;;;;;;13.03;7.37;;;;;;;15.11;87.65;101260.72;5112872;28;20477;-61
2023/10/11 06:16:43;;;;;;;13.88;7.38;;;;;;;15.14;87.77;101259.84;5112738;28;20031;-61
2023/10/11 06:19:26;;;;;;;15.45;7.45;;;;;;;15.13;88.08;101244.78;5112703;28;20065;-62
2023/10/11 06:21:59;;;;;;;13.60;7.22;;;;;;;15.18;87.79;101250.97;5112893;28;20030;-61
2023/10/11 06:24:36;;;;;;;14.07;7.30;;;;;;;15.21;87.76;101253.63;5112903;28;20030;-61
2023/10/11 06:29:53;;;;;;;14.75;7.45;;;;;;;15.24;88.06;101248.28;5113126;28;20104;-61
2023/10/11 06:32:23;;;;;;;12.60;7.55;;;;;;;15.27;87.68;101257.16;5113087;28;20032;-61
2023/10/11 06:34:50;;;;;;;11.65;7.22;;;;;;;15.32;87.85;101249.16;5112944;28;20048;-61
2023/10/11 06:37:25;;;;;;;14.82;7.57;;;;;;;15.33;87.97;101250.03;5112547;28;20369;-61
2023/10/11 06:44:47;;;;;;;15.70;7.97;;;;;;;15.44;88.62;101266.88;5116405;28;20032;-61
2023/10/11 06:47:14;;;;;;;16.70;7.22;;;;;;;15.49;88.17;101267.75;5116590;28;20023;-61
2023/10/11 06:49:47;;;;;;;12.40;7.90;;;;;;;15.56;87.93;101271.31;5116231;28;20111;-61
2023/10/11 06:52:17;;;;;;;14.80;8.60;;;;;;;15.62;87.65;101264.16;5116187;28;20028;-61
2023/10/11 06:54:47;;;;;;;17.45;7.55;;;;;;;15.70;87.59;101267.72;5114643;28;20040;-61
2023/10/11 06:57:17;;;;;;;16.55;7.47;;;;;;;15.78;87.43;101262.38;5116469;28;20122;-62
2023/10/11 06:59:49;;;;;;;13.00;8.07;;;;;;;15.86;87.21;101267.66;5116422;28;20333;-61
2023/10/11 07:02:18;;;;;;;14.60;7.90;;;;;;;15.92;86.75;101264.97;5116132;28;20027;-61
2023/10/11 07:04:52;;;;;;;14.60;7.72;;;;;;;16.01;86.39;101272.91;5115990;28;20393;-61
2023/10/11 07:07:20;;;;;;;16.10;8.07;;;;;;;16.10;86.13;101269.31;5116100;28;20032;-62
2023/10/11 07:09:56;;;;;;;14.95;8.02;;;;;;;16.19;85.42;101271.97;5115866;28;20473;-61
2023/10/11 07:12:40;;;;;;;12.43;7.72;;;;;;;16.26;85.36;101273.69;5116101;28;20050;-61
2023/10/11 07:15:09;;;;;;;14.70;7.60;;;;;;;16.37;84.81;101278.97;5114397;28;20059;-62
2023/10/11 07:17:38;;;;;;;16.92;7.35;;;;;;;16.52;84.21;101281.50;5115760;28;20016;-61
2023/10/11 07:20:44;;;;;;;12.75;7.32;;;;;;;16.63;83.71;101286.78;5115699;28;20028;-61
2023/10/11 07:22:55;;;;;;;16.30;7.95;;;;;;;16.79;83.23;101299.16;5115633;28;20047;-61
2023/10/11 07:25:36;;;;;;;17.95;7.55;;;;;;;16.92;82.50;101302.63;5115457;28;20074;-60
2023/10/11 07:28:03;;;;;;;15.82;7.97;;;;;;;17.02;81.80;101312.31;5115987;28;20481;-61
2023/10/11 07:30:37;;;;;;;12.80;7.53;;;;;;;17.07;81.80;101315.81;5115837;28;20050;-62
2023/10/11 07:33:04;;;;;;;17.58;7.85;;;;;;;17.13;81.37;101320.22;5115533;28;20084;-61
2023/10/11 07:35:29;;;;;;;19.65;7.97;;;;;;;17.11;81.27;101317.56;5115640;28;20032;-61
2023/10/11 07:37:56;;;;;;;19.00;8.35;;;;;;;17.18;81.17;101321.09;5115377;28;20035;-61
2023/10/11 07:40:33;;;;;;;16.42;7.65;;;;;;;17.32;80.74;101321.84;5115404;28;20030;-62
2023/10/11 07:42:59;;;;;;;15.98;7.70;;;;;;;17.48;79.93;101315.44;5115342;28;20074;-61
2023/10/11 07:45:26;;;;;;;16.13;8.38;;;;;;;17.58;79.69;101316.22;5115172;28;20047;-61
2023/10/11 07:47:52;;;;;;;13.98;7.95;;;;;;;17.68;79.42;101307.19;5115376;28;20032;-61
2023/10/11 07:50:23;;;;;;;14.77;8.35;;;;;;;17.80;79.04;101310.69;5115384;28;20368;-62
2023/10/11 07:52:49;;;;;;;17.40;7.57;;;;;;;17.95;78.47;101307.84;5114251;28;20031;-62
2023/10/11 07:55:17;;;;;;;13.13;7.68;;;;;;;18.08;77.58;101308.56;5114748;28;20301;-62
2023/10/11 07:57:46;;;;;;;14.93;7.90;;;;;;;18.16;77.09;101304.91;5115086;28;20027;-62
2023/10/11 08:00:19;;;;;;;17.10;8.07;;;;;;;18.29;77.19;101310.09;5114928;28;20066;-62
2023/10/11 08:02:56;;;;;;;15.70;8.10;;;;;;;18.39;76.39;101307.25;5115196;28;20034;-62
2023/10/11 08:05:25;;;;;;;14.25;7.90;;;;;;;18.57;76.60;101318.59;5115310;28;20031;-61
2023/10/11 08:07:51;;;;;;;20.35;8.65;;;;;;;18.72;75.52;101310.38;5114922;28;20023;-62
2023/10/11 08:13:23;;;;;;;19.58;8.07;;;;;;;19.05;74.43;101316.06;5101402;28;20047;-61
2023/10/11 08:15:59;;;;;;;13.52;7.82;;;;;;;18.98;75.08;101312.63;5114860;27;20032;-62
2023/10/11 08:18:26;;;;;;;15.82;7.65;;;;;;;18.90;74.81;101309.19;5114858;28;20040;-61
2023/10/11 08:20:52;;;;;;;18.45;7.80;;;;;;;18.83;75.33;101303.03;5114970;27;20032;-61
2023/10/11 08:23:29;;;;;;;16.10;8.18;;;;;;;18.81;75.36;101310.22;5114576;28;20054;-62
2023/10/11 08:25:59;;;;;;;21.30;8.18;;;;;;;18.69;75.70;101305.03;5114907;28;20051;-61
2023/10/11 08:28:34;;;;;;;18.08;8.27;;;;;;;18.64;76.48;101317.59;5114789;28;20040;-62
2023/10/11 08:31:00;;;;;;;23.83;7.82;;;;;;;18.61;76.50;101314.97;5114873;28;20040;-62
2023/10/11 08:33:30;;;;;;;15.18;8.52;;;;;;;18.61;77.32;101321.19;5114250;28;20027;-62
2023/10/11 08:35:56;;;;;;;19.05;8.18;;;;;;;18.72;76.47;101316.63;5114618;28;20076;-61
2023/10/11 08:38:24;;;;;;;15.63;8.15;;;;;;;18.91;76.14;101327.03;5114603;28;20036;-62
2023/10/11 08:40:58;;;;;;;19.60;8.05;;;;;;;19.03;75.62;101321.47;5112955;28;20038;-62
2023/10/11 08:43:25;;;;;;;14.15;7.70;;;;;;;19.21;75.42;101323.81;5114528;28;20027;-62
2023/10/11 08:46:00;;;;;;;17.75;8.18;;;;;;;19.45;74.36;101325.19;5112793;28;20024;-62
2023/10/11 08:48:27;;;;;;;15.77;7.70;;;;;;;19.60;73.71;101326.69;5113940;28;20032;-62
2023/10/11 08:50:54;;;;;;;17.17;7.88;;;;;;;19.66;73.23;101329.31;5112709;28;20028;-61
2023/10/11 08:53:21;;;;;;;17.38;7.93;;;;;;;19.83;72.72;101334.34;5113776;28;20094;-62
2023/10/11 08:55:51;;;;;;;15.27;7.90;;;;;;;20.11;72.66;101317.69;5112605;28;20031;-64
2023/10/11 08:58:29;;;;;;;16.27;8.65;;;;;;;20.14;72.01;101321.19;5113999;28;20034;-62
2023/10/11 09:00:58;;;;;;;14.43;8.02;;;;;;;20.23;72.11;101326.34;5113796;28;20028;-62
2023/10/11 09:03:26;;;;;;;15.63;8.27;;;;;;;20.18;72.38;101339.00;5113730;28;20030;-62
2023/10/11 09:05:58;;;;;;;14.20;7.90;;;;;;;20.07;72.57;101341.00;5113659;28;20054;-62
2023/10/11 09:08:31;;;;;;;15.50;8.70;;;;;;;20.06;73.41;101351.78;5114067;28;20106;-61
2023/10/11 09:11:28;;;;;;;19.63;8.95;;;;;;;19.96;74.25;101351.09;5113621;28;20040;-61
2023/10/11 09:14:13;;;;;;;17.42;9.40;;;;;;;19.83;74.81;101361.19;5113595;28;20499;-62
2023/10/11 09:16:40;;;;;;;19.65;9.30;;;;;;;19.72;74.96;101342.59;5113944;28;20028;-62
2023/10/11 09:19:06;;;;;;;23.45;9.82;;;;;;;19.77;75.25;101350.53;5113492;28;20024;-61
2023/10/11 09:21:35;;;;;;;24.08;9.75;;;;;;;19.75;76.16;101344.34;5112212;28;20461;-62
2023/10/11 09:24:03;;;;;;;19.30;9.98;;;;;;;19.76;75.41;101346.09;5113495;28;20032;-62
2023/10/11 09:26:32;;;;;;;20.48;10.85;;;;;;;19.70;76.44;101351.59;5113573;28;20129;-61
2023/10/11 09:29:02;;;;;;;21.17;11.00;;;;;;;19.57;76.80;101355.34;5113499;28;20119;-61
2023/10/11 09:31:30;;;;;;;23.95;11.90;;;;;;;19.46;77.61;101345.72;5113381;28;20111;-62
2023/10/11 09:34:07;;;;;;;19.63;11.77;;;;;;;19.40;78.22;101358.34;5113050;28;20099;-62
2023/10/11 09:36:33;;;;;;;23.13;11.98;;;;;;;19.37;78.21;101348.56;5113566;28;20027;-62
2023/10/11 09:38:59;;;;;;;25.95;12.93;;;;;;;19.35;79.02;101357.53;5113183;28;20031;-62
2023/10/11 09:41:40;;;;;;;23.42;12.90;;;;;;;19.28;79.41;101354.09;5113405;28;20042;-61
2023/10/11 09:44:07;;;;;;;24.08;12.73;;;;;;;19.23;80.03;101362.22;5113682;28;20366;-62
2023/10/11 09:46:36;;;;;;;22.13;13.15;;;;;;;19.24;80.51;101357.75;5113135;28;20062;-62
2023/10/11 09:49:15;;;;;;;24.90;13.48;;;;;;;19.22;80.73;101356.88;5113080;28;20054;-61
2023/10/11 09:51:41;;;;;;;23.08;13.43;;;;;;;19.18;81.09;101350.66;5113271;28;20081;-62
2023/10/11 09:54:12;;;;;;;23.83;13.80;;;;;;;19.20;81.40;101347.97;5112731;28;20043;-62
2023/10/11 09:56:54;;;;;;;32.78;14.18;;;;;;;19.23;81.84;101350.63;5113087;28;20027;-61
2023/10/11 09:59:41;;;;;;;27.40;15.13;;;;;;;19.28;82.07;101362.13;5113576;28;20097;-61
2023/10/11 10:02:29;;;;;;;24.67;15.85;;;;;;;19.23;82.20;101346.13;5113120;28;20437;-62
2023/10/11 10:04:55;;;;;;;22.63;14.95;;;;;;;19.12;83.27;101355.25;5112923;28;20028;-62
2023/10/11 10:07:26;;;;;;;28.88;14.25;;;;;;;19.10;83.96;101363.34;5111695;28;20384;-62
2023/10/11 10:09:59;;;;;;;24.63;14.82;;;;;;;19.08;83.85;101365.13;5112869;28;20476;-62
2023/10/11 10:12:45;;;;;;;23.90;14.80;;;;;;;19.11;84.29;101364.22;5113352;28;20035;-62
2023/10/11 10:15:14;;;;;;;22.70;14.32;;;;;;;19.12;83.87;101374.91;5098551;28;20059;-62
2023/10/11 10:18:05;;;;;;;24.38;14.88;;;;;;;19.09;84.46;101374.06;5116002;28;20080;-62
2023/10/11 10:20:33;;;;;;;23.45;14.45;;;;;;;19.08;84.60;101374.97;5116741;28;20042;-61
2023/10/11 10:23:32;;;;;;;26.98;15.88;;;;;;;19.06;83.95;101358.94;5116890;28;20092;-63
2023/10/11 10:26:03;;;;;;;28.00;16.02;;;;;;;19.05;85.45;101366.97;5101555;28;20124;-61
2023/10/11 10:28:35;;;;;;;28.20;16.30;;;;;;;19.06;85.06;101371.41;5116873;28;20019;-63
2023/10/11 10:31:11;;;;;;;28.42;17.20;;;;;;;18.98;85.67;101358.16;5115444;28;20024;-61
2023/10/11 10:33:41;;;;;;;25.85;16.88;;;;;;;18.97;86.42;101356.38;5116520;28;20488;-62
2023/10/11 10:36:37;;;;;;;28.40;16.90;;;;;;;19.02;85.07;101366.13;5116600;28;20480;-61
2023/10/11 10:41:36;;;;;;;28.73;16.98;;;;;;;18.92;86.76;101371.63;5116947;28;20119;-62
2023/10/11 10:44:04;;;;;;;27.17;16.10;;;;;;;18.99;86.61;101352.78;5116407;28;20559;-62
2023/10/11 10:46:31;;;;;;;30.08;16.92;;;;;;;19.00;86.50;101359.00;5116333;28;20468;-62
2023/10/11 10:48:56;;;;;;;30.55;16.38;;;;;;;19.00;86.77;101370.59;5116185;28;20376;-62
2023/10/11 10:51:25;;;;;;;30.80;16.13;;;;;;;18.95;86.57;101360.88;5116213;28;20496;-62
2023/10/11 10:53:51;;;;;;;28.48;17.42;;;;;;;18.91;87.27;101373.44;5114468;28;20047;-62
2023/10/11 10:56:29;;;;;;;28.13;16.42;;;;;;;18.89;87.24;101374.38;5116354;28;20392;-62
2023/10/11 10:59:12;;;;;;;28.23;16.33;;;;;;;18.85;88.31;101372.66;5116476;28;20412;-62
2023/10/11 11:01:44;;;;;;;34.13;16.83;;;;;;;18.86;88.67;101371.75;5116193;28;20028;-61
2023/10/11 11:04:11;;;;;;;29.80;15.85;;;;;;;18.87;88.02;101371.72;5116240;28;20034;-61
2023/10/11 11:06:47;;;;;;;30.05;16.73;;;;;;;18.84;88.75;101368.19;5116357;28;20046;-63
2023/10/11 11:09:27;;;;;;;27.55;16.08;;;;;;;18.87;88.13;101357.44;5116069;27;20033;-62
2023/10/11 11:11:57;;;;;;;27.80;15.27;;;;;;;18.86;88.23;101355.69;5116075;28;20035;-61
2023/10/11 11:14:23;;;;;;;25.23;15.43;;;;;;;18.87;88.95;101357.44;5116078;28;20464;-62
2023/10/11 11:16:59;;;;;;;31.88;16.13;;;;;;;18.85;88.50;101362.81;5116094;28;20041;-62
2023/10/11 11:19:34;;;;;;;29.63;16.35;;;;;;;18.84;89.19;101336.94;5115591;28;20376;-62
2023/10/11 11:22:12;;;;;;;25.70;16.10;;;;;;;18.87;88.56;101342.25;5115716;28;20039;-62
2023/10/11 11:24:42;;;;;;;30.33;16.63;;;;;;;18.86;89.54;101332.47;5115704;27;20035;-62
2023/10/11 11:27:18;;;;;;;28.80;16.45;;;;;;;18.86;89.10;101343.16;5115832;28;20027;-62
2023/10/11 11:29:47;;;;;;;31.17;16.48;;;;;;;18.84;89.57;101342.28;5114547;28;20055;-62
2023/10/11 11:32:17;;;;;;;27.77;16.45;;;;;;;18.88;89.73;101335.09;5115751;28;20118;-63
2023/10/11 11:35:09;;;;;;;26.20;16.05;;;;;;;18.88;89.45;101321.72;5115565;28;20031;-62
2023/10/11 11:37:38;;;;;;;28.20;15.25;;;;;;;18.88;89.20;101311.00;5115406;28;20032;-61
2023/10/11 11:40:23;;;;;;;24.77;14.95;;;;;;;18.86;89.75;101316.38;5115332;28;20515;-63
2023/10/11 11:42:49;;;;;;;29.80;15.13;;;;;;;18.91;89.63;101306.47;5115225;28;20472;-62
2023/10/11 11:45:16;;;;;;;27.25;15.63;;;;;;;18.92;89.31;101292.19;5113908;28;20106;-63
2023/10/11 11:47:57;;;;;;;29.02;15.45;;;;;;;18.96;88.81;101303.72;5115338;28;20550;-62
2023/10/11 11:50:24;;;;;;;26.77;15.20;;;;;;;18.92;89.89;101300.22;5115301;28;20028;-63
2023/10/11 11:52:50;;;;;;;25.85;15.57;;;;;;;18.98;89.50;101285.84;5114971;28;20012;-62
2023/10/11 11:55:16;;;;;;;28.42;15.70;;;;;;;19.02;89.39;101309.00;5113591;28;20097;-62
2023/10/11 11:57:42;;;;;;;24.40;14.25;;;;;;;19.05;89.27;101298.22;5115210;28;20023;-63
2023/10/11 12:02:49;;;;;;;24.35;14.40;;;;;;;19.14;88.98;101289.13;5115248;28;20480;-63
2023/10/11 12:05:14;;;;;;;24.45;13.80;;;;;;;19.12;88.61;101285.59;5114954;28;20038;-62
2023/10/11 12:07:40;;;;;;;24.60;14.95;;;;;;;19.14;89.26;101263.25;5114805;27;20446;-62
2023/10/11 12:10:11;;;;;;;26.60;14.93;;;;;;;19.20;89.10;101263.13;5114890;28;20535;-62
2023/10/11 12:12:36;;;;;;;23.05;14.93;;;;;;;19.34;88.79;101265.53;5115113;28;20040;-63
2023/10/11 12:15:03;;;;;;;27.95;14.93;;;;;;;19.50;88.25;101250.06;5114716;28;20036;-63
2023/10/11 12:17:29;;;;;;;27.85;13.90;;;;;;;19.65;86.62;101244.41;5114621;28;20038;-63
2023/10/11 12:19:54;;;;;;;30.25;14.10;;;;;;;19.76;86.04;101236.16;5114905;28;20031;-62
2023/10/11 12:22:22;;;;;;;26.50;13.77;;;;;;;19.85;85.51;101246.69;5114634;28;20028;-63
2023/10/11 12:24:48;;;;;;;27.25;13.80;;;;;;;19.90;84.76;101250.16;5114357;28;20464;-63
2023/10/11 12:27:13;;;;;;;26.27;13.48;;;;;;;20.01;83.57;101250.81;5114606;28;20026;-64
2023/10/11 12:29:39;;;;;;;24.13;13.20;;;;;;;20.15;83.96;101252.31;5114704;28;20023;-62